sensor_id;sensor_type;location;lat;lon;timestamp;temperature;humidity
23251;DHT22;11794;49.730;10.088;2023-04-25T00:01:05;8.60;99.90
23251;DHT22;11794;49.730;10.088;2023-04-25T00:03:31;8.60;99.90
23251;DHT22;11794;49.730;10.088;2023-04-25T00:06:00;8.50;99.90
23251;DHT22;11794;49.730;10.088;2023-04-25T00:08:29;8.50;99.90
23251;DHT22;11794;49.730;10.088;2023-04-25T00:10:56;8.50;99.90
23251;DHT22;11794;49.730;10.088;2023-04-25T00:13:21;8.50;99.90
23251;DHT22;11794;49.730;10.088;2023-04-25T00:15:47;8.50;99.90
23251;DHT22;11794;49.730;10.088;2023-04-25T00:18:14;8.50;99.90
23251;DHT22;11794;49.730;10.088;2023-04-25T00:20:39;8.50;99.90
23251;DHT22;11794;49.730;10.088;2023-04-25T00:23:05;8.50;99.90
23251;DHT22;11794;49.730;10.088;2023-04-25T00:25:31;8.50;99.90
23251;DHT22;11794;49.730;10.088;2023-04-25T00:27:56;8.40;99.90
23251;DHT22;11794;49.730;10.088;2023-04-25T00:30:22;8.30;99.90
23251;DHT22;11794;49.730;10.088;2023-04-25T00:32:48;8.40;99.90
23251;DHT22;11794;49.730;10.088;2023-04-25T00:35:14;8.30;99.90
23251;DHT22;11794;49.730;10.088;2023-04-25T00:37:39;8.30;99.90
23251;DHT22;11794;49.730;10.088;2023-04-25T00:40:06;8.30;99.90
23251;DHT22;11794;49.730;10.088;2023-04-25T00:42:31;8.30;99.90
23251;DHT22;11794;49.730;10.088;2023-04-25T00:44:58;8.30;99.90
23251;DHT22;11794;49.730;10.088;2023-04-25T00:47:25;8.20;99.90
23251;DHT22;11794;49.730;10.088;2023-04-25T00:49:50;8.30;99.90
23251;DHT22;11794;49.730;10.088;2023-04-25T00:52:16;8.20;99.90
23251;DHT22;11794;49.730;10.088;2023-04-25T00:54:42;8.30;99.90
23251;DHT22;11794;49.730;10.088;2023-04-25T00:57:08;8.20;99.90
23251;DHT22;11794;49.730;10.088;2023-04-25T00:59:34;8.20;99.90
23251;DHT22;11794;49.730;10.088;2023-04-25T01:02:01;8.10;99.90
23251;DHT22;11794;49.730;10.088;2023-04-25T01:04:29;8.10;99.90
23251;DHT22;11794;49.730;10.088;2023-04-25T01:06:55;8.10;99.90
23251;DHT22;11794;49.730;10.088;2023-04-25T01:09:22;8.00;99.90
23251;DHT22;11794;49.730;10.088;2023-04-25T01:11:48;7.90;99.90
23251;DHT22;11794;49.730;10.088;2023-04-25T01:14:14;7.90;99.90
23251;DHT22;11794;49.730;10.088;2023-04-25T01:16:40;7.80;99.90
23251;DHT22;11794;49.730;10.088;2023-04-25T01:19:10;7.80;99.90
23251;DHT22;11794;49.730;10.088;2023-04-25T01:21:38;7.80;99.90
23251;DHT22;11794;49.730;10.088;2023-04-25T01:24:05;7.80;99.90
23251;DHT22;11794;49.730;10.088;2023-04-25T01:26:31;7.80;99.90
23251;DHT22;11794;49.730;10.088;2023-04-25T01:28:58;7.70;99.90
23251;DHT22;11794;49.730;10.088;2023-04-25T01:31:24;7.70;99.90
23251;DHT22;11794;49.730;10.088;2023-04-25T01:33:49;7.70;99.90
23251;DHT22;11794;49.730;10.088;2023-04-25T01:36:15;7.70;99.90
23251;DHT22;11794;49.730;10.088;2023-04-25T01:38:41;7.70;99.90
23251;DHT22;11794;49.730;10.088;2023-04-25T01:41:07;7.80;99.90
23251;DHT22;11794;49.730;10.088;2023-04-25T01:43:32;7.90;99.90
23251;DHT22;11794;49.730;10.088;2023-04-25T01:45:58;7.90;99.90
23251;DHT22;11794;49.730;10.088;2023-04-25T01:48:24;7.90;99.90
23251;DHT22;11794;49.730;10.088;2023-04-25T01:50:50;8.00;99.90
23251;DHT22;11794;49.730;10.088;2023-04-25T01:53:15;7.90;99.90
23251;DHT22;11794;49.730;10.088;2023-04-25T01:55:41;8.00;99.90
23251;DHT22;11794;49.730;10.088;2023-04-25T01:58:07;7.90;99.90
23251;DHT22;11794;49.730;10.088;2023-04-25T02:00:38;7.90;99.90
23251;DHT22;11794;49.730;10.088;2023-04-25T02:03:05;7.90;99.90
23251;DHT22;11794;49.730;10.088;2023-04-25T02:05:38;7.90;99.90
23251;DHT22;11794;49.730;10.088;2023-04-25T02:08:05;7.90;99.90
23251;DHT22;11794;49.730;10.088;2023-04-25T02:10:31;7.90;99.90
23251;DHT22;11794;49.730;10.088;2023-04-25T02:12:57;7.90;99.90
23251;DHT22;11794;49.730;10.088;2023-04-25T02:15:23;7.80;99.90
23251;DHT22;11794;49.730;10.088;2023-04-25T02:17:48;7.80;99.90
23251;DHT22;11794;49.730;10.088;2023-04-25T02:20:14;7.80;99.90
23251;DHT22;11794;49.730;10.088;2023-04-25T02:22:41;7.70;99.90
23251;DHT22;11794;49.730;10.088;2023-04-25T02:25:08;7.70;99.90
23251;DHT22;11794;49.730;10.088;2023-04-25T02:27:34;7.70;99.90
23251;DHT22;11794;49.730;10.088;2023-04-25T02:30:00;7.70;99.90
23251;DHT22;11794;49.730;10.088;2023-04-25T02:32:26;7.70;99.90
23251;DHT22;11794;49.730;10.088;2023-04-25T02:34:52;7.70;99.90
23251;DHT22;11794;49.730;10.088;2023-04-25T02:37:18;7.70;99.90
23251;DHT22;11794;49.730;10.088;2023-04-25T02:39:43;7.70;99.90
23251;DHT22;11794;49.730;10.088;2023-04-25T02:42:08;7.60;99.90
23251;DHT22;11794;49.730;10.088;2023-04-25T02:44:34;7.60;99.90
23251;DHT22;11794;49.730;10.088;2023-04-25T02:47:00;7.70;99.90
23251;DHT22;11794;49.730;10.088;2023-04-25T02:49:25;7.70;99.90
23251;DHT22;11794;49.730;10.088;2023-04-25T02:51:51;7.60;99.90
23251;DHT22;11794;49.730;10.088;2023-04-25T02:54:16;7.60;99.90
23251;DHT22;11794;49.730;10.088;2023-04-25T02:56:42;7.60;99.90
23251;DHT22;11794;49.730;10.088;2023-04-25T02:59:07;7.60;99.90
23251;DHT22;11794;49.730;10.088;2023-04-25T03:01:33;7.60;99.90
23251;DHT22;11794;49.730;10.088;2023-04-25T03:03:58;7.50;99.90
23251;DHT22;11794;49.730;10.088;2023-04-25T03:06:25;7.50;99.90
23251;DHT22;11794;49.730;10.088;2023-04-25T03:08:50;7.50;99.90
23251;DHT22;11794;49.730;10.088;2023-04-25T03:11:16;7.50;99.90
23251;DHT22;11794;49.730;10.088;2023-04-25T03:13:41;7.50;99.90
23251;DHT22;11794;49.730;10.088;2023-04-25T03:16:07;7.40;99.90
23251;DHT22;11794;49.730;10.088;2023-04-25T03:18:32;7.40;99.90
23251;DHT22;11794;49.730;10.088;2023-04-25T03:20:58;7.40;99.90
23251;DHT22;11794;49.730;10.088;2023-04-25T03:23:23;7.50;99.90
23251;DHT22;11794;49.730;10.088;2023-04-25T03:25:49;7.40;99.90
23251;DHT22;11794;49.730;10.088;2023-04-25T03:28:14;7.40;99.90
23251;DHT22;11794;49.730;10.088;2023-04-25T03:30:40;7.40;99.90
23251;DHT22;11794;49.730;10.088;2023-04-25T03:33:05;7.40;99.90
23251;DHT22;11794;49.730;10.088;2023-04-25T03:35:31;7.40;99.90
23251;DHT22;11794;49.730;10.088;2023-04-25T03:37:56;7.40;99.90
23251;DHT22;11794;49.730;10.088;2023-04-25T03:40:22;7.40;99.90
23251;DHT22;11794;49.730;10.088;2023-04-25T03:42:47;7.40;99.90
23251;DHT22;11794;49.730;10.088;2023-04-25T03:45:13;7.50;99.90
23251;DHT22;11794;49.730;10.088;2023-04-25T03:47:38;7.50;99.90
23251;DHT22;11794;49.730;10.088;2023-04-25T03:50:04;7.50;99.90
23251;DHT22;11794;49.730;10.088;2023-04-25T03:52:30;7.40;99.90
23251;DHT22;11794;49.730;10.088;2023-04-25T03:54:56;7.40;99.90
23251;DHT22;11794;49.730;10.088;2023-04-25T03:57:21;7.40;99.90
23251;DHT22;11794;49.730;10.088;2023-04-25T03:59:46;7.40;99.90
23251;DHT22;11794;49.730;10.088;2023-04-25T04:02:12;7.40;99.90
23251;DHT22;11794;49.730;10.088;2023-04-25T04:04:38;7.40;99.90
23251;DHT22;11794;49.730;10.088;2023-04-25T04:07:03;7.40;99.90
23251;DHT22;11794;49.730;10.088;2023-04-25T04:09:29;7.40;99.90
23251;DHT22;11794;49.730;10.088;2023-04-25T04:11:54;7.40;99.90
23251;DHT22;11794;49.730;10.088;2023-04-25T04:14:20;7.30;99.90
23251;DHT22;11794;49.730;10.088;2023-04-25T04:16:46;7.30;99.90
23251;DHT22;11794;49.730;10.088;2023-04-25T04:19:11;7.30;99.90
23251;DHT22;11794;49.730;10.088;2023-04-25T04:21:37;7.30;99.90
23251;DHT22;11794;49.730;10.088;2023-04-25T04:24:02;7.30;99.90
23251;DHT22;11794;49.730;10.088;2023-04-25T04:26:28;7.40;99.90
23251;DHT22;11794;49.730;10.088;2023-04-25T04:28:54;7.30;99.90
23251;DHT22;11794;49.730;10.088;2023-04-25T04:31:21;7.30;99.90
23251;DHT22;11794;49.730;10.088;2023-04-25T04:33:47;7.30;99.90
23251;DHT22;11794;49.730;10.088;2023-04-25T04:36:13;7.30;99.90
23251;DHT22;11794;49.730;10.088;2023-04-25T04:38:39;7.20;99.90
23251;DHT22;11794;49.730;10.088;2023-04-25T04:41:06;7.30;99.90
23251;DHT22;11794;49.730;10.088;2023-04-25T04:43:32;7.20;99.90
23251;DHT22;11794;49.730;10.088;2023-04-25T04:46:00;7.20;99.90
23251;DHT22;11794;49.730;10.088;2023-04-25T04:48:26;7.20;99.90
23251;DHT22;11794;49.730;10.088;2023-04-25T04:50:52;7.20;99.90
23251;DHT22;11794;49.730;10.088;2023-04-25T04:53:17;7.10;99.90
23251;DHT22;11794;49.730;10.088;2023-04-25T04:55:43;7.20;99.90
23251;DHT22;11794;49.730;10.088;2023-04-25T04:58:08;7.20;99.90
23251;DHT22;11794;49.730;10.088;2023-04-25T05:00:34;7.20;99.90
23251;DHT22;11794;49.730;10.088;2023-04-25T05:02:59;7.20;99.90
23251;DHT22;11794;49.730;10.088;2023-04-25T05:05:25;7.20;99.90
23251;DHT22;11794;49.730;10.088;2023-04-25T05:07:51;7.10;99.90
23251;DHT22;11794;49.730;10.088;2023-04-25T05:10:18;7.10;99.90
23251;DHT22;11794;49.730;10.088;2023-04-25T05:12:43;7.20;99.90
23251;DHT22;11794;49.730;10.088;2023-04-25T05:15:09;7.10;99.90
23251;DHT22;11794;49.730;10.088;2023-04-25T05:17:35;7.10;99.90
23251;DHT22;11794;49.730;10.088;2023-04-25T05:20:01;7.20;99.90
23251;DHT22;11794;49.730;10.088;2023-04-25T05:22:27;7.20;99.90
23251;DHT22;11794;49.730;10.088;2023-04-25T05:24:52;7.30;99.90
23251;DHT22;11794;49.730;10.088;2023-04-25T05:27:18;7.30;99.90
23251;DHT22;11794;49.730;10.088;2023-04-25T05:29:44;7.30;99.90
23251;DHT22;11794;49.730;10.088;2023-04-25T05:32:10;7.30;99.90
23251;DHT22;11794;49.730;10.088;2023-04-25T05:34:36;7.40;99.90
23251;DHT22;11794;49.730;10.088;2023-04-25T05:37:02;7.50;99.90
23251;DHT22;11794;49.730;10.088;2023-04-25T05:39:27;7.50;99.90
23251;DHT22;11794;49.730;10.088;2023-04-25T05:41:53;7.60;99.90
23251;DHT22;11794;49.730;10.088;2023-04-25T05:44:19;7.60;99.90
23251;DHT22;11794;49.730;10.088;2023-04-25T05:46:44;7.60;99.90
23251;DHT22;11794;49.730;10.088;2023-04-25T05:49:10;7.70;99.90
23251;DHT22;11794;49.730;10.088;2023-04-25T05:51:35;7.60;99.90
23251;DHT22;11794;49.730;10.088;2023-04-25T05:54:01;7.60;99.90
23251;DHT22;11794;49.730;10.088;2023-04-25T05:56:27;7.70;99.90
23251;DHT22;11794;49.730;10.088;2023-04-25T05:58:52;7.70;99.90
23251;DHT22;11794;49.730;10.088;2023-04-25T06:01:18;7.60;99.90
23251;DHT22;11794;49.730;10.088;2023-04-25T06:03:44;7.60;99.90
23251;DHT22;11794;49.730;10.088;2023-04-25T06:06:11;7.70;99.90
23251;DHT22;11794;49.730;10.088;2023-04-25T06:08:36;7.70;99.90
23251;DHT22;11794;49.730;10.088;2023-04-25T06:11:03;7.60;99.90
23251;DHT22;11794;49.730;10.088;2023-04-25T06:13:28;7.70;99.90
23251;DHT22;11794;49.730;10.088;2023-04-25T06:15:54;7.70;99.90
23251;DHT22;11794;49.730;10.088;2023-04-25T06:18:19;7.70;99.90
23251;DHT22;11794;49.730;10.088;2023-04-25T06:20:45;7.80;99.90
23251;DHT22;11794;49.730;10.088;2023-04-25T06:23:10;7.80;99.90
23251;DHT22;11794;49.730;10.088;2023-04-25T06:25:36;7.80;99.90
23251;DHT22;11794;49.730;10.088;2023-04-25T06:28:01;7.90;99.90
23251;DHT22;11794;49.730;10.088;2023-04-25T06:30:27;7.90;99.90
23251;DHT22;11794;49.730;10.088;2023-04-25T06:32:53;8.10;99.90
23251;DHT22;11794;49.730;10.088;2023-04-25T06:35:19;8.20;99.90
23251;DHT22;11794;49.730;10.088;2023-04-25T06:37:44;8.20;99.90
23251;DHT22;11794;49.730;10.088;2023-04-25T06:40:10;8.30;99.90
23251;DHT22;11794;49.730;10.088;2023-04-25T06:42:36;8.40;99.90
23251;DHT22;11794;49.730;10.088;2023-04-25T06:45:02;8.50;99.90
23251;DHT22;11794;49.730;10.088;2023-04-25T06:47:27;8.50;99.90
23251;DHT22;11794;49.730;10.088;2023-04-25T06:49:53;8.60;99.90
23251;DHT22;11794;49.730;10.088;2023-04-25T06:52:18;8.50;99.90
23251;DHT22;11794;49.730;10.088;2023-04-25T06:54:44;8.60;99.90
23251;DHT22;11794;49.730;10.088;2023-04-25T06:57:10;8.60;99.90
23251;DHT22;11794;49.730;10.088;2023-04-25T06:59:36;8.70;99.90
23251;DHT22;11794;49.730;10.088;2023-04-25T07:02:01;8.90;99.90
23251;DHT22;11794;49.730;10.088;2023-04-25T07:04:27;9.30;99.90
23251;DHT22;11794;49.730;10.088;2023-04-25T07:06:52;9.70;99.90
23251;DHT22;11794;49.730;10.088;2023-04-25T07:09:18;9.90;99.90
23251;DHT22;11794;49.730;10.088;2023-04-25T07:11:44;10.00;99.90
23251;DHT22;11794;49.730;10.088;2023-04-25T07:14:10;10.20;99.90
23251;DHT22;11794;49.730;10.088;2023-04-25T07:16:35;11.00;99.90
23251;DHT22;11794;49.730;10.088;2023-04-25T07:19:01;11.10;99.90
23251;DHT22;11794;49.730;10.088;2023-04-25T07:21:26;10.90;99.90
23251;DHT22;11794;49.730;10.088;2023-04-25T07:23:52;10.60;99.90
23251;DHT22;11794;49.730;10.088;2023-04-25T07:26:17;10.60;99.90
23251;DHT22;11794;49.730;10.088;2023-04-25T07:28:43;10.60;99.90
23251;DHT22;11794;49.730;10.088;2023-04-25T07:31:09;10.50;99.90
23251;DHT22;11794;49.730;10.088;2023-04-25T07:33:34;10.40;99.90
23251;DHT22;11794;49.730;10.088;2023-04-25T07:36:00;10.40;99.90
23251;DHT22;11794;49.730;10.088;2023-04-25T07:38:26;10.50;99.90
23251;DHT22;11794;49.730;10.088;2023-04-25T07:40:51;10.50;99.90
23251;DHT22;11794;49.730;10.088;2023-04-25T07:43:17;10.70;99.90
23251;DHT22;11794;49.730;10.088;2023-04-25T07:45:43;10.80;99.90
23251;DHT22;11794;49.730;10.088;2023-04-25T07:48:09;10.80;99.90
23251;DHT22;11794;49.730;10.088;2023-04-25T07:50:35;10.90;99.90
23251;DHT22;11794;49.730;10.088;2023-04-25T07:53:01;11.00;99.90
23251;DHT22;11794;49.730;10.088;2023-04-25T07:55:26;11.10;99.90
23251;DHT22;11794;49.730;10.088;2023-04-25T07:57:52;11.10;99.90
23251;DHT22;11794;49.730;10.088;2023-04-25T08:00:18;10.90;99.90
23251;DHT22;11794;49.730;10.088;2023-04-25T08:02:43;10.90;99.90
23251;DHT22;11794;49.730;10.088;2023-04-25T08:05:09;10.90;99.90
23251;DHT22;11794;49.730;10.088;2023-04-25T08:07:37;11.00;99.90
23251;DHT22;11794;49.730;10.088;2023-04-25T08:10:05;11.10;99.90
23251;DHT22;11794;49.730;10.088;2023-04-25T08:12:31;11.30;99.90
23251;DHT22;11794;49.730;10.088;2023-04-25T08:14:56;12.00;99.90
23251;DHT22;11794;49.730;10.088;2023-04-25T08:17:22;12.60;99.90
23251;DHT22;11794;49.730;10.088;2023-04-25T08:19:47;13.00;99.90
23251;DHT22;11794;49.730;10.088;2023-04-25T08:22:13;13.30;99.90
23251;DHT22;11794;49.730;10.088;2023-04-25T08:24:38;13.90;99.90
23251;DHT22;11794;49.730;10.088;2023-04-25T08:27:04;13.90;99.90
23251;DHT22;11794;49.730;10.088;2023-04-25T08:29:29;14.40;99.90
23251;DHT22;11794;49.730;10.088;2023-04-25T08:31:55;15.10;99.90
23251;DHT22;11794;49.730;10.088;2023-04-25T08:34:20;15.80;99.90
23251;DHT22;11794;49.730;10.088;2023-04-25T08:36:46;15.80;99.90
23251;DHT22;11794;49.730;10.088;2023-04-25T08:39:11;15.70;99.90
23251;DHT22;11794;49.730;10.088;2023-04-25T08:41:38;16.10;99.90
23251;DHT22;11794;49.730;10.088;2023-04-25T08:44:08;16.20;99.90
23251;DHT22;11794;49.730;10.088;2023-04-25T08:46:35;16.30;99.90
23251;DHT22;11794;49.730;10.088;2023-04-25T08:49:01;16.70;99.90
23251;DHT22;11794;49.730;10.088;2023-04-25T08:51:33;16.80;99.90
23251;DHT22;11794;49.730;10.088;2023-04-25T08:54:08;16.50;99.90
23251;DHT22;11794;49.730;10.088;2023-04-25T08:56:35;16.70;99.90
23251;DHT22;11794;49.730;10.088;2023-04-25T08:59:01;17.10;99.90
23251;DHT22;11794;49.730;10.088;2023-04-25T09:01:27;17.30;99.90
23251;DHT22;11794;49.730;10.088;2023-04-25T09:03:53;17.30;99.90
23251;DHT22;11794;49.730;10.088;2023-04-25T09:06:19;17.40;99.90
23251;DHT22;11794;49.730;10.088;2023-04-25T09:08:45;17.40;99.90
23251;DHT22;11794;49.730;10.088;2023-04-25T09:11:12;17.50;99.90
23251;DHT22;11794;49.730;10.088;2023-04-25T09:13:38;17.50;99.90
23251;DHT22;11794;49.730;10.088;2023-04-25T09:16:03;17.00;99.90
23251;DHT22;11794;49.730;10.088;2023-04-25T09:18:33;16.60;99.90
23251;DHT22;11794;49.730;10.088;2023-04-25T09:21:10;16.70;99.90
23251;DHT22;11794;49.730;10.088;2023-04-25T09:23:49;16.60;99.90
23251;DHT22;11794;49.730;10.088;2023-04-25T09:26:18;16.30;99.90
23251;DHT22;11794;49.730;10.088;2023-04-25T09:28:44;16.40;99.90
23251;DHT22;11794;49.730;10.088;2023-04-25T09:31:11;16.00;99.90
23251;DHT22;11794;49.730;10.088;2023-04-25T09:33:37;15.70;99.90
23251;DHT22;11794;49.730;10.088;2023-04-25T09:36:07;15.70;99.90
23251;DHT22;11794;49.730;10.088;2023-04-25T09:38:40;15.70;99.90
23251;DHT22;11794;49.730;10.088;2023-04-25T09:41:07;15.50;99.90
23251;DHT22;11794;49.730;10.088;2023-04-25T09:43:33;15.80;99.90
23251;DHT22;11794;49.730;10.088;2023-04-25T09:45:59;15.90;99.90
23251;DHT22;11794;49.730;10.088;2023-04-25T09:48:27;15.80;99.90
23251;DHT22;11794;49.730;10.088;2023-04-25T09:51:04;15.70;99.90
23251;DHT22;11794;49.730;10.088;2023-04-25T09:53:31;15.70;99.90
23251;DHT22;11794;49.730;10.088;2023-04-25T09:55:59;15.40;99.90
23251;DHT22;11794;49.730;10.088;2023-04-25T09:58:25;15.00;99.90
23251;DHT22;11794;49.730;10.088;2023-04-25T10:00:54;14.90;99.90
23251;DHT22;11794;49.730;10.088;2023-04-25T10:03:23;15.10;99.90
23251;DHT22;11794;49.730;10.088;2023-04-25T10:05:50;14.80;99.90
23251;DHT22;11794;49.730;10.088;2023-04-25T10:08:17;14.60;99.90
23251;DHT22;11794;49.730;10.088;2023-04-25T10:10:44;14.40;99.90
23251;DHT22;11794;49.730;10.088;2023-04-25T10:13:11;14.30;99.90
23251;DHT22;11794;49.730;10.088;2023-04-25T10:18:43;14.50;99.90
23251;DHT22;11794;49.730;10.088;2023-04-25T10:21:08;14.20;99.90
23251;DHT22;11794;49.730;10.088;2023-04-25T10:23:34;14.30;99.90
23251;DHT22;11794;49.730;10.088;2023-04-25T10:26:02;14.30;99.90
23251;DHT22;11794;49.730;10.088;2023-04-25T10:28:27;14.60;99.90
23251;DHT22;11794;49.730;10.088;2023-04-25T10:31:00;14.90;99.90
23251;DHT22;11794;49.730;10.088;2023-04-25T10:33:44;15.00;99.90
23251;DHT22;11794;49.730;10.088;2023-04-25T10:36:15;14.80;99.90
23251;DHT22;11794;49.730;10.088;2023-04-25T10:38:43;15.00;99.90
23251;DHT22;11794;49.730;10.088;2023-04-25T10:41:10;15.50;99.90
23251;DHT22;11794;49.730;10.088;2023-04-25T10:43:39;15.90;99.90
23251;DHT22;11794;49.730;10.088;2023-04-25T10:46:26;16.40;99.90
23251;DHT22;11794;49.730;10.088;2023-04-25T10:48:54;17.00;99.90
23251;DHT22;11794;49.730;10.088;2023-04-25T10:51:28;17.30;99.90
23251;DHT22;11794;49.730;10.088;2023-04-25T10:54:01;16.40;99.40
23251;DHT22;11794;49.730;10.088;2023-04-25T10:59:06;15.90;99.90
23251;DHT22;11794;49.730;10.088;2023-04-25T11:01:55;16.60;99.90
23251;DHT22;11794;49.730;10.088;2023-04-25T11:04:26;17.80;99.40
23251;DHT22;11794;49.730;10.088;2023-04-25T11:09:28;18.30;99.10
23251;DHT22;11794;49.730;10.088;2023-04-25T11:11:57;18.40;96.50
23251;DHT22;11794;49.730;10.088;2023-04-25T11:14:24;18.20;97.60
23251;DHT22;11794;49.730;10.088;2023-04-25T11:16:54;17.60;98.00
23251;DHT22;11794;49.730;10.088;2023-04-25T11:19:21;17.00;98.40
23251;DHT22;11794;49.730;10.088;2023-04-25T11:21:47;16.60;98.90
23251;DHT22;11794;49.730;10.088;2023-04-25T11:24:13;16.00;99.80
23251;DHT22;11794;49.730;10.088;2023-04-25T11:26:40;15.60;99.70
23251;DHT22;11794;49.730;10.088;2023-04-25T11:29:06;15.10;99.90
23251;DHT22;11794;49.730;10.088;2023-04-25T11:31:31;14.70;99.90
23251;DHT22;11794;49.730;10.088;2023-04-25T11:33:57;14.10;99.90
23251;DHT22;11794;49.730;10.088;2023-04-25T11:36:26;14.20;99.90
23251;DHT22;11794;49.730;10.088;2023-04-25T11:38:53;14.30;99.90
23251;DHT22;11794;49.730;10.088;2023-04-25T11:41:19;14.20;99.90
23251;DHT22;11794;49.730;10.088;2023-04-25T11:43:45;14.10;99.90
23251;DHT22;11794;49.730;10.088;2023-04-25T11:46:11;13.90;99.90
23251;DHT22;11794;49.730;10.088;2023-04-25T11:48:40;14.20;99.90
23251;DHT22;11794;49.730;10.088;2023-04-25T11:51:06;14.50;99.90
23251;DHT22;11794;49.730;10.088;2023-04-25T11:53:32;14.40;99.90
23251;DHT22;11794;49.730;10.088;2023-04-25T11:55:57;14.20;99.90
23251;DHT22;11794;49.730;10.088;2023-04-25T11:58:23;13.80;99.90
23251;DHT22;11794;49.730;10.088;2023-04-25T12:00:48;13.50;99.90
23251;DHT22;11794;49.730;10.088;2023-04-25T12:03:14;13.30;99.90
23251;DHT22;11794;49.730;10.088;2023-04-25T12:05:39;13.20;99.90
23251;DHT22;11794;49.730;10.088;2023-04-25T12:08:15;12.80;99.90
23251;DHT22;11794;49.730;10.088;2023-04-25T12:10:43;12.60;99.90
23251;DHT22;11794;49.730;10.088;2023-04-25T12:13:26;12.70;99.90
23251;DHT22;11794;49.730;10.088;2023-04-25T12:15:56;13.00;99.90
23251;DHT22;11794;49.730;10.088;2023-04-25T12:18:23;13.90;99.90
23251;DHT22;11794;49.730;10.088;2023-04-25T12:20:49;14.50;99.90
23251;DHT22;11794;49.730;10.088;2023-04-25T12:23:15;14.70;99.90
23251;DHT22;11794;49.730;10.088;2023-04-25T12:25:42;14.70;99.90
23251;DHT22;11794;49.730;10.088;2023-04-25T12:28:21;14.90;99.90
23251;DHT22;11794;49.730;10.088;2023-04-25T12:33:26;14.90;99.90
23251;DHT22;11794;49.730;10.088;2023-04-25T12:35:53;15.00;99.90
23251;DHT22;11794;49.730;10.088;2023-04-25T12:38:29;15.20;99.90
23251;DHT22;11794;49.730;10.088;2023-04-25T12:40:55;14.90;99.90
23251;DHT22;11794;49.730;10.088;2023-04-25T12:43:21;14.70;99.90
23251;DHT22;11794;49.730;10.088;2023-04-25T12:45:49;14.50;99.90
23251;DHT22;11794;49.730;10.088;2023-04-25T12:48:15;14.30;99.90
23251;DHT22;11794;49.730;10.088;2023-04-25T12:50:41;13.60;99.90
23251;DHT22;11794;49.730;10.088;2023-04-25T12:53:06;12.80;99.90
23251;DHT22;11794;49.730;10.088;2023-04-25T12:55:32;12.60;99.90
23251;DHT22;11794;49.730;10.088;2023-04-25T12:57:57;12.50;99.90
23251;DHT22;11794;49.730;10.088;2023-04-25T13:00:23;12.40;99.90
23251;DHT22;11794;49.730;10.088;2023-04-25T13:02:48;12.40;99.90
23251;DHT22;11794;49.730;10.088;2023-04-25T13:05:14;12.50;99.90
23251;DHT22;11794;49.730;10.088;2023-04-25T13:07:40;12.50;99.90
23251;DHT22;11794;49.730;10.088;2023-04-25T13:10:06;12.60;99.90
23251;DHT22;11794;49.730;10.088;2023-04-25T13:12:32;12.90;99.90
23251;DHT22;11794;49.730;10.088;2023-04-25T13:14:58;13.30;99.90
23251;DHT22;11794;49.730;10.088;2023-04-25T13:17:24;13.60;99.90
23251;DHT22;11794;49.730;10.088;2023-04-25T13:19:49;13.90;99.90
23251;DHT22;11794;49.730;10.088;2023-04-25T13:22:15;14.20;99.90
23251;DHT22;11794;49.730;10.088;2023-04-25T13:24:42;14.30;99.90
23251;DHT22;11794;49.730;10.088;2023-04-25T13:27:08;14.20;99.90
23251;DHT22;11794;49.730;10.088;2023-04-25T13:29:33;13.90;99.90
23251;DHT22;11794;49.730;10.088;2023-04-25T13:32:01;13.90;99.90
23251;DHT22;11794;49.730;10.088;2023-04-25T13:34:27;13.80;99.90
23251;DHT22;11794;49.730;10.088;2023-04-25T13:36:53;13.70;99.90
23251;DHT22;11794;49.730;10.088;2023-04-25T13:39:18;13.50;99.90
23251;DHT22;11794;49.730;10.088;2023-04-25T13:41:44;13.50;99.90
23251;DHT22;11794;49.730;10.088;2023-04-25T13:44:10;12.60;99.90
23251;DHT22;11794;49.730;10.088;2023-04-25T13:46:35;12.40;99.90
23251;DHT22;11794;49.730;10.088;2023-04-25T13:49:02;12.30;99.90
23251;DHT22;11794;49.730;10.088;2023-04-25T13:51:28;12.20;99.90
23251;DHT22;11794;49.730;10.088;2023-04-25T13:53:53;12.30;99.90
23251;DHT22;11794;49.730;10.088;2023-04-25T13:56:19;12.50;99.90
23251;DHT22;11794;49.730;10.088;2023-04-25T13:58:45;12.70;99.90
23251;DHT22;11794;49.730;10.088;2023-04-25T14:01:11;12.80;99.90
23251;DHT22;11794;49.730;10.088;2023-04-25T14:03:36;13.00;99.90
23251;DHT22;11794;49.730;10.088;2023-04-25T14:06:02;13.80;99.90
23251;DHT22;11794;49.730;10.088;2023-04-25T14:08:28;15.00;99.90
23251;DHT22;11794;49.730;10.088;2023-04-25T14:10:54;15.40;99.90
23251;DHT22;11794;49.730;10.088;2023-04-25T14:13:20;15.00;99.90
23251;DHT22;11794;49.730;10.088;2023-04-25T14:15:45;14.30;99.90
23251;DHT22;11794;49.730;10.088;2023-04-25T14:18:11;13.90;99.90
23251;DHT22;11794;49.730;10.088;2023-04-25T14:20:37;13.40;99.90
23251;DHT22;11794;49.730;10.088;2023-04-25T14:23:02;13.00;99.90
23251;DHT22;11794;49.730;10.088;2023-04-25T14:25:29;12.70;99.90
23251;DHT22;11794;49.730;10.088;2023-04-25T14:27:55;12.50;99.90
23251;DHT22;11794;49.730;10.088;2023-04-25T14:30:21;12.30;99.90
23251;DHT22;11794;49.730;10.088;2023-04-25T14:32:48;12.30;99.90
23251;DHT22;11794;49.730;10.088;2023-04-25T14:35:14;12.20;99.90
23251;DHT22;11794;49.730;10.088;2023-04-25T14:37:40;12.20;99.90
23251;DHT22;11794;49.730;10.088;2023-04-25T14:40:07;12.00;99.90
23251;DHT22;11794;49.730;10.088;2023-04-25T14:42:36;12.00;99.90
23251;DHT22;11794;49.730;10.088;2023-04-25T14:45:03;12.00;99.90
23251;DHT22;11794;49.730;10.088;2023-04-25T14:47:28;12.40;99.90
23251;DHT22;11794;49.730;10.088;2023-04-25T14:49:54;12.80;99.90
23251;DHT22;11794;49.730;10.088;2023-04-25T14:52:20;12.90;99.90
23251;DHT22;11794;49.730;10.088;2023-04-25T14:54:46;12.90;99.90
23251;DHT22;11794;49.730;10.088;2023-04-25T14:57:12;13.00;99.90
23251;DHT22;11794;49.730;10.088;2023-04-25T14:59:38;13.10;99.90
23251;DHT22;11794;49.730;10.088;2023-04-25T15:02:04;13.20;99.90
23251;DHT22;11794;49.730;10.088;2023-04-25T15:04:29;13.20;99.90
23251;DHT22;11794;49.730;10.088;2023-04-25T15:06:55;13.20;99.90
23251;DHT22;11794;49.730;10.088;2023-04-25T15:09:21;13.30;99.90
23251;DHT22;11794;49.730;10.088;2023-04-25T15:11:48;13.20;99.90
23251;DHT22;11794;49.730;10.088;2023-04-25T15:14:13;13.20;99.90
23251;DHT22;11794;49.730;10.088;2023-04-25T15:16:39;12.90;99.90
23251;DHT22;11794;49.730;10.088;2023-04-25T15:19:04;12.60;99.90
23251;DHT22;11794;49.730;10.088;2023-04-25T15:21:31;12.60;99.90
23251;DHT22;11794;49.730;10.088;2023-04-25T15:23:56;12.70;99.90
23251;DHT22;11794;49.730;10.088;2023-04-25T15:26:22;12.70;99.90
23251;DHT22;11794;49.730;10.088;2023-04-25T15:28:48;12.70;99.90